createdAt,value
2022-07-30T00:01:03.967Z,6.87
2022-07-30T00:03:34.335Z,7.30
2022-07-30T00:06:03.925Z,7.53
2022-07-30T00:08:36.572Z,8.00
2022-07-30T00:11:07.448Z,9.27
2022-07-30T00:13:34.523Z,9.10
2022-07-30T00:16:04.654Z,9.47
2022-07-30T00:18:34.520Z,9.47
2022-07-30T00:21:04.596Z,9.50
2022-07-30T00:23:32.495Z,8.57
2022-07-30T00:25:59.469Z,8.50
2022-07-30T00:28:26.533Z,9.10
2022-07-30T00:30:56.119Z,9.47
2022-07-30T00:33:23.183Z,9.33
2022-07-30T00:35:50.422Z,9.07
2022-07-30T00:38:20.359Z,8.83
2022-07-30T00:40:47.808Z,9.20
2022-07-30T00:43:18.459Z,9.47
2022-07-30T00:45:45.512Z,9.70
2022-07-30T00:48:16.580Z,9.70
2022-07-30T00:50:46.455Z,8.90
2022-07-30T00:53:15.796Z,9.00
2022-07-30T00:55:43.043Z,9.10
2022-07-30T00:58:10.465Z,8.10
2022-07-30T01:00:40.193Z,8.00
2022-07-30T01:03:07.388Z,9.43
2022-07-30T01:05:34.801Z,8.40
2022-07-30T01:08:01.582Z,8.53
2022-07-30T01:10:28.370Z,9.43
2022-07-30T01:12:55.122Z,8.53
2022-07-30T01:15:22.443Z,8.57
2022-07-30T01:17:52.831Z,8.73
2022-07-30T01:20:37.180Z,8.70
2022-07-30T01:23:37.463Z,8.03
2022-07-30T01:26:11.401Z,6.23
2022-07-30T01:28:44.807Z,6.20
2022-07-30T01:31:13.903Z,5.83
2022-07-30T01:33:47.096Z,5.63
2022-07-30T01:36:16.811Z,5.57
2022-07-30T01:38:45.677Z,6.27
2022-07-30T01:41:14.373Z,6.50
2022-07-30T01:43:42.310Z,8.47
2022-07-30T01:46:10.499Z,12.83
2022-07-30T01:48:43.292Z,15.60
2022-07-30T01:51:13.444Z,17.63
2022-07-30T01:53:45.275Z,15.43
2022-07-30T01:56:16.938Z,17.70
2022-07-30T01:58:47.209Z,17.57
2022-07-30T02:01:31.646Z,15.80
2022-07-30T02:04:02.639Z,14.00
2022-07-30T02:06:44.867Z,16.63
2022-07-30T02:09:22.641Z,15.50
2022-07-30T02:12:15.825Z,13.03
2022-07-30T02:14:48.598Z,15.13
2022-07-30T02:17:39.480Z,13.77
2022-07-30T02:20:10.895Z,13.73
2022-07-30T02:22:44.211Z,10.60
2022-07-30T02:25:24.785Z,9.40
2022-07-30T02:28:07.474Z,9.30
2022-07-30T02:30:39.410Z,8.53
2022-07-30T02:33:14.475Z,8.40
2022-07-30T02:35:48.640Z,8.50
2022-07-30T02:38:29.921Z,7.70
2022-07-30T02:41:08.280Z,9.20
2022-07-30T02:43:53.009Z,8.57
2022-07-30T02:46:22.164Z,8.50
2022-07-30T02:49:24.522Z,8.20
2022-07-30T02:51:53.310Z,9.10
2022-07-30T02:54:22.627Z,8.70
2022-07-30T02:56:51.251Z,8.83
2022-07-30T02:59:20.895Z,9.40
2022-07-30T03:01:49.160Z,8.80
2022-07-30T03:04:19.510Z,9.40
2022-07-30T03:06:50.125Z,8.70
2022-07-30T03:09:18.849Z,9.23
2022-07-30T03:11:46.199Z,8.40
2022-07-30T03:14:14.388Z,8.60
2022-07-30T03:16:46.065Z,8.80
2022-07-30T03:19:21.165Z,9.40
2022-07-30T03:21:53.511Z,8.50
2022-07-30T03:24:34.458Z,9.20
2022-07-30T03:27:06.091Z,8.97
2022-07-30T03:29:41.538Z,9.00
2022-07-30T03:32:09.104Z,9.37
2022-07-30T03:34:41.714Z,9.30
2022-07-30T03:37:09.875Z,9.63
2022-07-30T03:39:37.584Z,9.00
2022-07-30T03:42:07.367Z,9.60
2022-07-30T03:44:35.810Z,9.37
2022-07-30T03:47:06.316Z,9.73
2022-07-30T03:49:39.710Z,8.87
2022-07-30T03:52:07.222Z,9.27
2022-07-30T03:54:35.609Z,9.17
2022-07-30T03:57:23.022Z,9.60
2022-07-30T03:59:51.989Z,9.50
2022-07-30T04:02:26.874Z,9.40
2022-07-30T04:05:27.334Z,10.73
2022-07-30T04:08:08.193Z,10.40
2022-07-30T04:10:40.689Z,9.53
2022-07-30T04:13:44.891Z,10.93
2022-07-30T04:16:39.973Z,12.40
2022-07-30T04:19:23.548Z,10.83
2022-07-30T04:22:14.715Z,10.40
2022-07-30T04:24:43.361Z,10.70
2022-07-30T04:27:14.835Z,14.07
2022-07-30T04:29:46.477Z,13.53
2022-07-30T04:32:30.289Z,12.57
2022-07-30T04:35:50.185Z,12.47
2022-07-30T04:38:36.004Z,12.10
2022-07-30T04:41:18.422Z,12.10
2022-07-30T04:44:17.223Z,12.20
2022-07-30T04:46:58.938Z,17.07
2022-07-30T04:49:40.967Z,16.30
2022-07-30T04:52:19.714Z,15.83
2022-07-30T04:55:09.442Z,15.80
2022-07-30T05:00:24.117Z,14.53
2022-07-30T05:03:00.110Z,13.00
2022-07-30T05:05:33.250Z,14.27
2022-07-30T05:08:03.321Z,11.37
2022-07-30T05:10:30.288Z,13.00
2022-07-30T05:12:57.051Z,11.80
2022-07-30T05:15:36.032Z,11.10
2022-07-30T05:18:07.094Z,10.80
2022-07-30T05:20:37.878Z,11.63
2022-07-30T05:23:15.612Z,11.23
2022-07-30T05:25:48.527Z,11.00
2022-07-30T05:28:31.137Z,11.83
2022-07-30T05:31:03.651Z,12.47
2022-07-30T05:33:45.333Z,11.80
2022-07-30T05:36:21.848Z,11.53
2022-07-30T05:38:54.886Z,12.70
2022-07-30T05:41:36.872Z,14.37
2022-07-30T05:44:12.995Z,13.47
2022-07-30T05:46:43.228Z,13.80
2022-07-30T05:49:15.099Z,13.80
2022-07-30T05:51:42.631Z,14.43
2022-07-30T05:54:13.867Z,17.03
2022-07-30T05:57:13.182Z,14.93
2022-07-30T05:59:40.623Z,16.77
2022-07-30T06:02:08.964Z,15.60
2022-07-30T06:04:54.823Z,15.90
2022-07-30T06:07:35.889Z,15.90
2022-07-30T06:10:12.378Z,15.20
2022-07-30T06:12:45.785Z,14.53
2022-07-30T06:15:14.159Z,15.37
2022-07-30T06:17:51.133Z,16.90
2022-07-30T06:20:55.879Z,16.60
2022-07-30T06:24:03.508Z,16.97
2022-07-30T06:26:38.062Z,16.57
2022-07-30T06:29:06.792Z,17.70
2022-07-30T06:31:34.468Z,17.27
2022-07-30T06:34:02.367Z,16.50
2022-07-30T06:36:34.871Z,16.40
2022-07-30T06:39:05.823Z,16.93
2022-07-30T06:41:51.413Z,16.80
2022-07-30T06:44:18.290Z,16.40
2022-07-30T06:46:48.113Z,13.70
2022-07-30T06:49:14.908Z,13.03
2022-07-30T06:51:42.198Z,12.77
2022-07-30T06:54:11.982Z,12.20
2022-07-30T06:57:01.664Z,12.57
2022-07-30T06:59:30.069Z,11.83
2022-07-30T07:02:11.458Z,12.93
2022-07-30T07:04:59.593Z,12.90
2022-07-30T07:07:41.386Z,12.30
2022-07-30T07:10:12.954Z,14.00
2022-07-30T07:12:46.206Z,14.57
2022-07-30T07:15:19.085Z,14.50
2022-07-30T07:18:05.069Z,12.83
2022-07-30T07:20:37.455Z,12.27
2022-07-30T07:23:09.219Z,11.80
2022-07-30T07:25:40.042Z,11.30
2022-07-30T07:28:12.111Z,11.43
2022-07-30T07:30:43.628Z,11.33
2022-07-30T07:33:17.327Z,11.83
2022-07-30T07:35:50.373Z,10.73
2022-07-30T07:38:29.502Z,11.03
2022-07-30T07:41:04.009Z,11.20
2022-07-30T07:43:31.768Z,10.17
2022-07-30T07:46:02.700Z,10.40
2022-07-30T07:48:40.129Z,9.70
2022-07-30T07:51:46.908Z,10.60
2022-07-30T07:54:23.413Z,9.47
2022-07-30T07:56:57.445Z,10.57
2022-07-30T07:59:42.561Z,9.80
2022-07-30T08:02:19.769Z,10.57
2022-07-30T08:05:01.887Z,11.20
2022-07-30T08:07:47.577Z,10.20
2022-07-30T08:10:17.895Z,10.87
2022-07-30T08:16:14.714Z,10.17
2022-07-30T08:19:04.777Z,10.30
2022-07-30T08:21:41.500Z,9.57
2022-07-30T08:24:11.759Z,10.00
2022-07-30T08:26:38.700Z,9.90
2022-07-30T08:29:22.523Z,10.40
2022-07-30T08:32:11.201Z,10.60
2022-07-30T08:35:54.938Z,10.50
2022-07-30T08:38:03.924Z,11.17
2022-07-30T08:40:37.012Z,11.00
2022-07-30T08:43:19.655Z,11.80
2022-07-30T08:46:02.391Z,13.07
2022-07-30T08:49:15.618Z,13.10
2022-07-30T08:52:12.191Z,12.87
2022-07-30T08:54:42.244Z,13.20
2022-07-30T08:57:18.545Z,13.43
2022-07-30T09:00:01.171Z,13.07
2022-07-30T09:02:35.620Z,13.70
2022-07-30T09:05:19.141Z,13.40
2022-07-30T09:08:08.940Z,12.73
2022-07-30T09:10:40.194Z,13.03
2022-07-30T09:19:36.051Z,10.63
2022-07-30T09:25:56.939Z,10.97
2022-07-30T09:28:52.223Z,10.77
2022-07-30T09:31:56.584Z,9.03
2022-07-30T09:34:53.926Z,11.03
2022-07-30T09:38:04.537Z,12.00
2022-07-30T09:40:57.327Z,10.80
2022-07-30T09:43:51.096Z,10.90
2022-07-30T09:46:51.844Z,11.20
2022-07-30T09:49:28.196Z,11.50
2022-07-30T09:51:57.596Z,12.30
2022-07-30T09:54:51.384Z,12.20
2022-07-30T09:57:25.770Z,10.93
2022-07-30T10:00:42.399Z,10.43
2022-07-30T10:03:47.818Z,11.30
2022-07-30T10:06:47.618Z,11.43
2022-07-30T10:09:48.010Z,9.63
2022-07-30T10:12:33.509Z,9.00
2022-07-30T10:18:24.943Z,8.57
2022-07-30T10:21:19.462Z,8.33
2022-07-30T10:24:27.696Z,7.50
2022-07-30T10:30:45.890Z,7.50
2022-07-30T10:33:40.320Z,7.67
2022-07-30T10:36:42.544Z,7.20
2022-07-30T10:39:49.591Z,7.13
2022-07-30T10:46:09.292Z,7.07
2022-07-30T10:49:05.920Z,6.30
2022-07-30T10:51:52.567Z,6.07
2022-07-30T10:58:22.979Z,6.00
2022-07-30T11:01:30.548Z,5.77
2022-07-30T11:04:50.104Z,6.13
2022-07-30T11:07:28.282Z,5.83
2022-07-30T11:10:13.478Z,5.67
2022-07-30T11:12:58.559Z,5.20
2022-07-30T11:15:56.695Z,5.03
2022-07-30T11:18:28.769Z,6.20
2022-07-30T11:21:51.430Z,4.97
2022-07-30T11:25:13.113Z,5.70
2022-07-30T11:30:43.664Z,6.20
2022-07-30T11:39:07.581Z,6.47
2022-07-30T11:42:28.983Z,7.60
2022-07-30T11:45:31.332Z,7.63
2022-07-30T11:48:00.882Z,6.40
2022-07-30T11:50:33.973Z,5.60
2022-07-30T11:53:09.024Z,6.97
2022-07-30T11:55:40.971Z,7.20
2022-07-30T11:58:10.202Z,7.10
2022-07-30T12:00:42.367Z,7.50
2022-07-30T12:03:18.028Z,7.20
2022-07-30T12:05:45.596Z,7.10
2022-07-30T12:08:33.545Z,7.03
2022-07-30T12:11:03.335Z,7.30
2022-07-30T12:13:42.847Z,6.93
2022-07-30T12:16:17.741Z,7.30
2022-07-30T12:18:45.777Z,6.93
2022-07-30T12:21:13.816Z,7.20
2022-07-30T12:23:43.479Z,7.37
2022-07-30T12:26:26.531Z,7.60
2022-07-30T12:28:55.290Z,6.60
2022-07-30T12:31:22.140Z,6.90
2022-07-30T12:33:49.160Z,6.23
2022-07-30T12:36:26.898Z,6.60
2022-07-30T12:38:54.809Z,6.67
2022-07-30T12:41:22.695Z,6.33
2022-07-30T12:43:56.548Z,5.93
2022-07-30T12:46:32.753Z,5.93
2022-07-30T12:49:22.172Z,5.87
2022-07-30T12:52:00.738Z,5.87
2022-07-30T12:54:47.537Z,5.47
2022-07-30T12:57:31.176Z,5.17
2022-07-30T13:00:19.664Z,5.60
2022-07-30T13:02:57.208Z,5.50
2022-07-30T13:05:55.560Z,5.43
2022-07-30T13:09:06.607Z,5.60
2022-07-30T13:11:49.036Z,5.40
2022-07-30T13:14:17.348Z,5.13
2022-07-30T13:16:44.750Z,5.53
2022-07-30T13:19:12.511Z,5.70
2022-07-30T13:21:40.794Z,5.43
2022-07-30T13:24:20.208Z,5.90
2022-07-30T13:26:47.933Z,6.20
2022-07-30T13:29:18.123Z,6.20
2022-07-30T13:31:54.758Z,6.20
2022-07-30T13:34:21.874Z,6.10
2022-07-30T13:36:49.077Z,6.10
2022-07-30T13:39:16.191Z,6.03
2022-07-30T13:41:43.661Z,5.80
2022-07-30T13:44:10.974Z,6.00
2022-07-30T13:47:10.291Z,5.80
2022-07-30T13:49:39.901Z,6.13
2022-07-30T13:52:07.309Z,6.00
2022-07-30T13:54:34.715Z,5.50
2022-07-30T13:57:01.919Z,5.97
2022-07-30T13:59:29.224Z,5.33
2022-07-30T14:01:57.539Z,5.63
2022-07-30T14:04:24.496Z,4.70
2022-07-30T14:06:51.587Z,5.10
2022-07-30T14:09:18.689Z,5.10
2022-07-30T14:11:45.884Z,5.40
2022-07-30T14:14:12.847Z,4.97
2022-07-30T14:16:46.864Z,5.03
2022-07-30T14:19:30.450Z,4.80
2022-07-30T14:22:01.968Z,4.80
2022-07-30T14:24:42.544Z,4.73
2022-07-30T14:27:18.211Z,5.00
2022-07-30T14:29:48.010Z,4.80
2022-07-30T14:32:15.025Z,4.70
2022-07-30T14:34:49.084Z,5.00
2022-07-30T14:37:19.555Z,4.60
2022-07-30T14:39:46.419Z,4.97
2022-07-30T14:42:13.495Z,4.70
2022-07-30T14:44:40.494Z,4.30
2022-07-30T14:47:07.915Z,4.73
2022-07-30T14:49:35.175Z,4.67
2022-07-30T14:52:02.580Z,4.20
2022-07-30T14:54:31.554Z,4.37
2022-07-30T14:56:58.797Z,4.43
2022-07-30T14:59:27.703Z,4.63
2022-07-30T15:01:55.598Z,4.20
2022-07-30T15:04:23.293Z,4.53
2022-07-30T15:06:50.597Z,4.23
2022-07-30T15:09:20.052Z,4.20
2022-07-30T15:14:34.428Z,4.03
2022-07-30T15:17:04.296Z,4.30
2022-07-30T15:19:32.115Z,4.03
2022-07-30T15:22:02.919Z,4.27
2022-07-30T15:24:31.580Z,4.13
2022-07-30T15:26:59.141Z,4.17
2022-07-30T15:29:28.346Z,4.17
2022-07-30T15:31:55.307Z,4.13
2022-07-30T15:34:22.861Z,4.47
2022-07-30T15:36:49.823Z,4.30
2022-07-30T15:39:16.984Z,4.30
2022-07-30T15:41:44.144Z,5.00
2022-07-30T15:44:14.163Z,4.40
2022-07-30T15:46:40.899Z,4.43
2022-07-30T15:49:08.167Z,4.20
2022-07-30T15:51:35.804Z,4.57
2022-07-30T15:54:03.050Z,4.80
2022-07-30T15:56:32.863Z,4.60
2022-07-30T15:59:00.265Z,5.00
2022-07-30T16:01:27.346Z,4.37
2022-07-30T16:03:54.934Z,4.80
2022-07-30T16:06:22.041Z,4.33
2022-07-30T16:08:49.362Z,4.37
2022-07-30T16:11:16.561Z,4.50
2022-07-30T16:13:43.386Z,4.77
2022-07-30T16:16:10.165Z,4.87
2022-07-30T16:18:37.128Z,4.50
2022-07-30T16:21:06.170Z,4.93
2022-07-30T16:23:36.500Z,4.67
2022-07-30T16:26:04.044Z,4.87
2022-07-30T16:28:31.359Z,4.70
2022-07-30T16:30:58.792Z,4.40
2022-07-30T16:33:25.637Z,5.30
2022-07-30T16:35:52.728Z,4.90
2022-07-30T16:38:20.577Z,4.97
2022-07-30T16:40:48.125Z,4.83
2022-07-30T16:43:16.418Z,5.23
2022-07-30T16:45:46.942Z,4.90
2022-07-30T16:48:14.090Z,4.60
2022-07-30T16:50:41.867Z,4.57
2022-07-30T16:53:13.758Z,4.70
2022-07-30T16:55:42.379Z,4.40
2022-07-30T16:58:09.844Z,4.70
2022-07-30T17:00:37.110Z,4.47
2022-07-30T17:03:03.955Z,4.63
2022-07-30T17:05:31.432Z,5.00
2022-07-30T17:07:58.454Z,4.93
2022-07-30T17:10:26.362Z,4.53
2022-07-30T17:12:56.949Z,4.27
2022-07-30T17:15:32.639Z,4.07
2022-07-30T17:18:01.910Z,4.27
2022-07-30T17:20:33.751Z,4.20
2022-07-30T17:23:00.723Z,4.20
2022-07-30T17:25:28.139Z,4.27
2022-07-30T17:27:55.793Z,3.93
2022-07-30T17:30:23.385Z,4.00
2022-07-30T17:32:51.044Z,3.77
2022-07-30T17:35:18.050Z,3.60
2022-07-30T17:37:45.021Z,3.83
2022-07-30T17:40:28.582Z,3.90
2022-07-30T17:43:04.671Z,3.67
2022-07-30T17:45:36.026Z,3.90
2022-07-30T17:48:03.814Z,3.57
2022-07-30T17:50:32.315Z,3.67
2022-07-30T17:52:59.831Z,4.10
2022-07-30T17:55:30.979Z,4.20
2022-07-30T17:57:57.655Z,3.90
2022-07-30T18:00:24.469Z,4.43
2022-07-30T18:02:51.298Z,4.03
2022-07-30T18:05:18.329Z,3.90
2022-07-30T18:07:45.433Z,3.70
2022-07-30T18:10:13.498Z,3.60
2022-07-30T18:12:49.190Z,4.30
2022-07-30T18:15:17.761Z,4.40
2022-07-30T18:17:44.973Z,4.33
2022-07-30T18:20:12.205Z,4.40
2022-07-30T18:22:40.400Z,3.90
2022-07-30T18:25:08.116Z,4.03
2022-07-30T18:27:45.888Z,4.17
2022-07-30T18:30:13.068Z,3.97
2022-07-30T18:32:39.876Z,4.47
2022-07-30T18:35:10.817Z,4.40
2022-07-30T18:37:41.895Z,3.80
2022-07-30T18:40:10.585Z,3.77
2022-07-30T18:42:40.040Z,4.17
2022-07-30T18:45:07.353Z,3.60
2022-07-30T18:47:34.739Z,3.83
2022-07-30T18:50:01.793Z,4.10
2022-07-30T18:52:28.689Z,4.00
2022-07-30T18:54:55.381Z,3.53
2022-07-30T18:57:22.494Z,3.83
2022-07-30T18:59:49.551Z,3.80
2022-07-30T19:02:23.979Z,3.90
2022-07-30T19:04:51.448Z,3.40
2022-07-30T19:07:21.517Z,4.20
2022-07-30T19:09:59.855Z,3.53
2022-07-30T19:12:41.616Z,3.93
2022-07-30T19:15:14.049Z,3.97
2022-07-30T19:17:47.098Z,3.70
2022-07-30T19:20:13.912Z,3.23
2022-07-30T19:22:44.473Z,3.43
2022-07-30T19:25:27.231Z,3.40
2022-07-30T19:27:57.304Z,3.47
2022-07-30T19:30:33.356Z,3.40
2022-07-30T19:33:30.931Z,3.60
2022-07-30T19:36:07.037Z,3.40
2022-07-30T19:38:42.490Z,3.37
2022-07-30T19:41:36.757Z,3.43
2022-07-30T19:44:05.929Z,3.23
2022-07-30T19:46:41.438Z,3.60
2022-07-30T19:49:12.431Z,2.97
2022-07-30T19:52:10.360Z,3.40
2022-07-30T19:54:40.799Z,3.23
2022-07-30T19:57:17.539Z,3.10
2022-07-30T19:59:59.734Z,3.23
2022-07-30T20:02:38.669Z,3.30
2022-07-30T20:05:32.587Z,3.40
2022-07-30T20:08:31.683Z,3.90
2022-07-30T20:11:09.908Z,7.73
2022-07-30T20:14:09.646Z,7.23
2022-07-30T20:16:39.662Z,5.30
2022-07-30T20:19:11.165Z,4.70
2022-07-30T20:21:56.501Z,4.17
2022-07-30T20:24:27.275Z,4.40
2022-07-30T20:27:37.155Z,4.37
2022-07-30T20:30:04.097Z,4.27
2022-07-30T20:32:53.243Z,4.50
2022-07-30T20:35:32.429Z,5.07
2022-07-30T20:38:10.166Z,4.97
2022-07-30T20:40:37.655Z,5.50
2022-07-30T20:43:54.742Z,4.60
2022-07-30T20:46:28.002Z,5.00
2022-07-30T20:48:57.370Z,5.13
2022-07-30T20:51:33.741Z,5.30
2022-07-30T20:54:01.658Z,6.47
2022-07-30T20:56:28.685Z,6.00
2022-07-30T20:58:57.073Z,5.40
2022-07-30T21:01:23.961Z,6.40
2022-07-30T21:03:50.943Z,7.00
2022-07-30T21:06:19.160Z,6.90
2022-07-30T21:08:48.894Z,7.33
2022-07-30T21:11:18.200Z,7.50
2022-07-30T21:13:46.173Z,7.30
2022-07-30T21:16:16.455Z,6.70
2022-07-30T21:18:49.779Z,6.00
2022-07-30T21:21:17.953Z,6.70
2022-07-30T21:23:58.370Z,6.80
2022-07-30T21:26:27.835Z,5.67
2022-07-30T21:29:00.800Z,6.07
2022-07-30T21:31:34.935Z,5.30
2022-07-30T21:34:15.427Z,7.00
2022-07-30T21:36:43.686Z,6.30
2022-07-30T21:39:14.014Z,6.30
2022-07-30T21:41:41.189Z,6.70
2022-07-30T21:44:11.538Z,7.47
2022-07-30T21:46:40.786Z,7.50
2022-07-30T21:49:09.269Z,8.23
2022-07-30T21:51:39.356Z,8.10
2022-07-30T21:54:08.171Z,8.27
2022-07-30T22:00:04.059Z,8.23
2022-07-30T22:03:05.021Z,8.57
2022-07-30T22:05:48.640Z,8.47
2022-07-30T22:08:19.032Z,8.33
2022-07-30T22:10:52.019Z,8.90
2022-07-30T22:13:32.311Z,8.10
2022-07-30T22:16:00.492Z,8.80
2022-07-30T22:18:42.318Z,10.10
2022-07-30T22:21:29.593Z,8.57
2022-07-30T22:24:03.060Z,8.17
2022-07-30T22:26:33.246Z,9.60
2022-07-30T22:29:45.887Z,7.90
2022-07-30T22:32:19.866Z,8.30
2022-07-30T22:34:53.239Z,8.30
2022-07-30T22:37:34.049Z,8.70
2022-07-30T22:40:06.684Z,7.17
2022-07-30T22:42:49.800Z,7.93
2022-07-30T22:45:44.723Z,9.40
2022-07-30T22:48:16.668Z,9.27
2022-07-30T22:50:43.635Z,8.40
2022-07-30T22:53:56.925Z,9.70
2022-07-30T22:56:14.073Z,8.20
2022-07-30T22:58:51.201Z,8.30
2022-07-30T23:01:20.342Z,8.13
2022-07-30T23:04:04.722Z,7.97
2022-07-30T23:06:38.091Z,9.27
2022-07-30T23:09:18.444Z,8.13
2022-07-30T23:11:51.233Z,9.23
2022-07-30T23:14:25.662Z,10.03
2022-07-30T23:17:18.207Z,10.40
2022-07-30T23:19:52.483Z,10.70
2022-07-30T23:22:26.585Z,11.13
2022-07-30T23:25:10.280Z,10.90
2022-07-30T23:27:48.310Z,12.13
2022-07-30T23:30:35.760Z,11.60
2022-07-30T23:33:20.054Z,11.73
2022-07-30T23:38:47.602Z,10.10
2022-07-30T23:41:30.380Z,9.90
2022-07-30T23:44:02.974Z,11.47
2022-07-30T23:46:40.861Z,10.00
2022-07-30T23:49:11.773Z,10.13
2022-07-30T23:52:13.706Z,9.60
2022-07-30T23:54:51.257Z,9.87
2022-07-30T23:57:34.212Z,10.70
